createdAt,value
2022-09-10T00:01:40.635Z,1.15
2022-09-10T00:04:11.884Z,1.55
2022-09-10T00:06:40.844Z,1.50
2022-09-10T00:09:12.058Z,2.47
2022-09-10T00:11:41.762Z,2.57
2022-09-10T00:14:15.129Z,2.03
2022-09-10T00:16:43.692Z,1.95
2022-09-10T00:19:12.951Z,2.88
2022-09-10T00:21:41.853Z,1.98
2022-09-10T00:24:11.712Z,5.05
2022-09-10T00:26:40.592Z,1.38
2022-09-10T00:29:11.501Z,2.10
2022-09-10T00:31:40.424Z,2.10
2022-09-10T00:34:09.135Z,1.00
2022-09-10T00:36:39.853Z,1.25
2022-09-10T00:39:10.086Z,1.00
2022-09-10T00:41:41.594Z,2.13
2022-09-10T00:44:44.496Z,1.85
2022-09-10T00:47:18.015Z,2.25
2022-09-10T00:49:50.177Z,2.15
2022-09-10T00:52:19.091Z,2.25
2022-09-10T00:54:49.003Z,1.85
2022-09-10T00:57:23.615Z,2.35
2022-09-10T00:59:59.804Z,1.80
2022-09-10T01:02:28.462Z,1.65
2022-09-10T01:04:58.982Z,1.92
2022-09-10T01:07:30.246Z,3.13
2022-09-10T01:10:00.740Z,2.78
2022-09-10T01:12:49.018Z,3.03
2022-09-10T01:15:25.547Z,2.20
2022-09-10T01:18:04.484Z,2.95
2022-09-10T01:20:56.102Z,3.30
2022-09-10T01:24:13.315Z,4.97
2022-09-10T01:27:06.219Z,3.03
2022-09-10T01:29:40.835Z,4.22
2022-09-10T01:32:15.378Z,3.27
2022-09-10T01:34:55.052Z,3.57
2022-09-10T01:37:27.782Z,4.25
2022-09-10T01:39:57.496Z,4.13
2022-09-10T01:42:27.082Z,3.17
2022-09-10T01:44:59.878Z,2.80
2022-09-10T01:48:04.398Z,5.35
2022-09-10T01:50:43.050Z,4.47
2022-09-10T01:53:40.303Z,3.65
2022-09-10T01:56:25.165Z,6.93
2022-09-10T01:58:58.592Z,6.80
2022-09-10T02:01:43.213Z,4.45
2022-09-10T02:04:14.798Z,4.97
2022-09-10T02:06:48.152Z,4.93
2022-09-10T02:09:19.922Z,4.80
2022-09-10T02:11:51.557Z,3.15
2022-09-10T02:14:35.881Z,4.70
2022-09-10T02:17:37.090Z,3.58
2022-09-10T02:20:09.271Z,3.95
2022-09-10T02:22:41.590Z,3.70
2022-09-10T02:25:10.903Z,4.05
2022-09-10T02:27:43.501Z,3.25
2022-09-10T02:30:12.828Z,5.32
2022-09-10T02:32:42.919Z,4.05
2022-09-10T02:35:11.739Z,4.20
2022-09-10T02:37:40.262Z,4.00
2022-09-10T02:40:10.547Z,5.70
2022-09-10T02:42:39.281Z,4.23
2022-09-10T02:45:09.011Z,5.35
2022-09-10T02:47:38.352Z,4.47
2022-09-10T02:50:10.106Z,5.20
2022-09-10T02:52:38.581Z,6.73
2022-09-10T02:55:09.484Z,6.17
2022-09-10T02:57:39.371Z,4.97
2022-09-10T03:00:09.272Z,8.82
2022-09-10T03:02:37.981Z,4.60
2022-09-10T03:05:08.858Z,4.10
2022-09-10T03:07:37.440Z,4.20
2022-09-10T03:10:06.649Z,5.57
2022-09-10T03:12:35.125Z,5.72
2022-09-10T03:15:03.652Z,5.87
2022-09-10T03:17:32.243Z,4.33
2022-09-10T03:20:00.829Z,6.23
2022-09-10T03:22:32.024Z,3.73
2022-09-10T03:25:00.973Z,4.53
2022-09-10T03:27:29.420Z,8.67
2022-09-10T03:29:58.243Z,5.70
2022-09-10T03:32:26.724Z,6.33
2022-09-10T03:34:56.300Z,5.70
2022-09-10T03:37:25.175Z,7.37
2022-09-10T03:39:55.469Z,8.27
2022-09-10T03:42:23.978Z,4.57
2022-09-10T03:44:52.444Z,4.70
2022-09-10T03:47:21.051Z,4.32
2022-09-10T03:49:50.797Z,6.00
2022-09-10T03:52:22.684Z,4.05
2022-09-10T03:54:52.408Z,4.80
2022-09-10T03:57:23.220Z,5.40
2022-09-10T03:59:52.704Z,4.97
2022-09-10T04:02:21.214Z,4.38
2022-09-10T04:04:49.898Z,7.38
2022-09-10T04:07:18.424Z,6.00
2022-09-10T04:09:47.151Z,7.70
2022-09-10T04:12:16.871Z,6.57
2022-09-10T04:14:47.520Z,5.07
2022-09-10T04:17:18.088Z,5.72
2022-09-10T04:19:47.045Z,5.13
2022-09-10T04:22:15.568Z,5.15
2022-09-10T04:24:45.101Z,5.17
2022-09-10T04:27:13.921Z,5.53
2022-09-10T04:29:43.016Z,6.45
2022-09-10T04:32:13.422Z,5.05
2022-09-10T04:34:42.732Z,5.40
2022-09-10T04:37:14.195Z,7.05
2022-09-10T04:39:46.281Z,6.00
2022-09-10T04:42:17.798Z,5.25
2022-09-10T04:44:46.342Z,8.15
2022-09-10T04:47:16.912Z,6.90
2022-09-10T04:49:45.887Z,5.60
2022-09-10T04:52:16.797Z,5.53
2022-09-10T04:54:45.882Z,7.05
2022-09-10T04:57:15.049Z,5.88
2022-09-10T04:59:43.816Z,5.80
2022-09-10T05:02:13.190Z,6.13
2022-09-10T05:04:44.211Z,5.85
2022-09-10T05:07:12.767Z,6.10
2022-09-10T05:09:41.227Z,6.22
2022-09-10T05:12:10.538Z,7.20
2022-09-10T05:14:39.119Z,7.15
2022-09-10T05:17:07.769Z,7.15
2022-09-10T05:19:36.329Z,6.38
2022-09-10T05:22:09.864Z,8.05
2022-09-10T05:24:38.415Z,7.60
2022-09-10T05:27:08.795Z,8.55
2022-09-10T05:29:37.594Z,8.02
2022-09-10T05:32:09.661Z,9.20
2022-09-10T05:34:39.953Z,7.72
2022-09-10T05:37:12.042Z,7.75
2022-09-10T05:39:40.692Z,7.50
2022-09-10T05:42:09.481Z,7.78
2022-09-10T05:44:39.555Z,8.48
2022-09-10T05:47:08.207Z,8.63
2022-09-10T05:49:37.145Z,10.10
2022-09-10T05:52:06.490Z,8.63
2022-09-10T05:54:37.555Z,8.70
2022-09-10T05:57:06.606Z,8.03
2022-09-10T05:59:36.449Z,8.63
2022-09-10T06:02:05.244Z,8.32
2022-09-10T06:04:34.969Z,7.85
2022-09-10T06:07:04.669Z,7.70
2022-09-10T06:09:33.277Z,8.70
2022-09-10T06:12:08.869Z,5.53
2022-09-10T06:14:38.188Z,5.53
2022-09-10T06:17:06.832Z,5.77
2022-09-10T06:19:35.357Z,5.72
2022-09-10T06:22:03.925Z,5.10
2022-09-10T06:24:37.218Z,5.67
2022-09-10T06:27:08.612Z,4.55
2022-09-10T06:29:37.695Z,4.47
2022-09-10T06:32:07.497Z,4.05
2022-09-10T06:34:36.317Z,4.32
2022-09-10T06:37:06.713Z,4.80
2022-09-10T06:39:38.006Z,4.25
2022-09-10T06:42:09.104Z,6.47
2022-09-10T06:45:05.189Z,4.43
2022-09-10T06:48:37.261Z,4.78
2022-09-10T06:51:08.705Z,7.07
2022-09-10T06:53:40.571Z,6.38
2022-09-10T06:56:13.558Z,5.30
2022-09-10T06:58:43.703Z,6.20
2022-09-10T07:01:15.451Z,5.93
2022-09-10T07:03:48.854Z,7.38
2022-09-10T07:06:19.652Z,7.43
2022-09-10T07:08:56.680Z,5.57
2022-09-10T07:11:28.118Z,6.55
2022-09-10T07:14:01.549Z,3.60
2022-09-10T07:16:33.109Z,2.85
2022-09-10T07:19:02.072Z,1.67
2022-09-10T07:21:50.184Z,3.28
2022-09-10T07:24:20.151Z,4.30
2022-09-10T07:27:11.017Z,1.63
2022-09-10T07:29:43.717Z,2.70
2022-09-10T07:32:16.502Z,2.88
2022-09-10T07:34:46.644Z,1.63
2022-09-10T07:37:16.830Z,1.48
2022-09-10T07:39:47.322Z,1.33
2022-09-10T07:42:17.114Z,1.67
2022-09-10T07:44:49.017Z,1.90
2022-09-10T07:47:17.727Z,2.40
2022-09-10T07:49:46.684Z,1.77
2022-09-10T07:52:17.539Z,2.38
2022-09-10T07:54:51.113Z,1.30
2022-09-10T07:57:20.881Z,1.45
2022-09-10T07:59:51.138Z,1.23
2022-09-10T08:02:25.849Z,1.65
2022-09-10T08:05:00.233Z,1.52
2022-09-10T08:07:29.209Z,1.00
2022-09-10T08:09:57.945Z,2.13
2022-09-10T08:12:26.890Z,1.40
2022-09-10T08:14:58.855Z,1.02
2022-09-10T08:17:31.141Z,1.20
2022-09-10T08:20:01.493Z,1.17
2022-09-10T08:22:31.533Z,1.02
2022-09-10T08:25:01.614Z,1.60
2022-09-10T08:27:33.634Z,1.92
2022-09-10T08:30:06.903Z,1.05
2022-09-10T08:32:36.216Z,1.05
2022-09-10T08:35:06.438Z,0.95
2022-09-10T08:37:35.685Z,3.28
2022-09-10T08:40:05.700Z,1.42
2022-09-10T08:42:42.973Z,1.30
2022-09-10T08:45:17.185Z,1.25
2022-09-10T08:47:53.373Z,1.20
2022-09-10T08:50:39.177Z,1.20
2022-09-10T08:53:25.999Z,1.67
2022-09-10T08:55:58.535Z,2.00
2022-09-10T08:58:33.817Z,1.80
2022-09-10T09:01:07.698Z,1.40
2022-09-10T09:03:43.605Z,1.40
2022-09-10T09:06:25.061Z,2.03
2022-09-10T09:08:55.029Z,1.70
2022-09-10T09:11:41.181Z,2.45
2022-09-10T09:14:33.584Z,2.05
2022-09-10T09:17:44.390Z,1.90
2022-09-10T09:20:18.074Z,1.20
2022-09-10T09:22:53.604Z,2.22
2022-09-10T09:25:32.887Z,6.07
2022-09-10T09:28:06.500Z,2.30
2022-09-10T09:30:49.415Z,6.15
2022-09-10T09:33:25.104Z,8.90
2022-09-10T09:36:00.118Z,2.35
2022-09-10T09:38:34.083Z,2.08
2022-09-10T09:41:08.510Z,2.83
2022-09-10T09:43:52.471Z,3.42
2022-09-10T09:46:24.390Z,2.95
2022-09-10T09:49:01.353Z,2.58
2022-09-10T09:51:35.476Z,1.67
2022-09-10T09:57:00.361Z,2.95
2022-09-10T09:59:31.186Z,4.35
2022-09-10T10:02:05.782Z,2.88
2022-09-10T10:04:41.473Z,3.00
2022-09-10T10:07:11.920Z,3.53
2022-09-10T10:09:44.688Z,1.88
2022-09-10T10:12:20.788Z,2.47
2022-09-10T10:14:51.417Z,2.58
2022-09-10T10:17:36.123Z,2.90
2022-09-10T10:20:09.189Z,2.20
2022-09-10T10:22:38.926Z,1.63
2022-09-10T10:25:23.832Z,2.38
2022-09-10T10:27:54.402Z,3.58
2022-09-10T10:30:25.088Z,2.33
2022-09-10T10:32:57.005Z,2.05
2022-09-10T10:35:50.148Z,2.85
2022-09-10T10:38:32.785Z,1.73
2022-09-10T10:41:34.155Z,1.77
2022-09-10T10:44:32.063Z,1.50
2022-09-10T10:47:23.002Z,2.03
2022-09-10T10:49:59.206Z,2.80
2022-09-10T10:52:37.122Z,1.75
2022-09-10T10:55:20.439Z,0.93
2022-09-10T10:58:04.461Z,1.85
2022-09-10T11:00:42.018Z,2.75
2022-09-10T11:03:17.817Z,2.22
2022-09-10T11:05:49.345Z,1.52
2022-09-10T11:08:27.168Z,1.73
2022-09-10T11:11:01.226Z,1.73
2022-09-10T11:13:36.170Z,2.20
2022-09-10T11:16:09.674Z,2.40
2022-09-10T11:18:44.685Z,1.95
2022-09-10T11:21:20.408Z,2.72
2022-09-10T11:23:55.426Z,2.17
2022-09-10T11:26:29.574Z,4.35
2022-09-10T11:29:09.086Z,1.98
2022-09-10T11:31:43.148Z,1.83
2022-09-10T11:34:15.094Z,2.65
2022-09-10T11:36:49.255Z,1.70
2022-09-10T11:39:24.308Z,3.15
2022-09-10T11:41:55.858Z,2.75
2022-09-10T11:44:45.967Z,2.05
2022-09-10T11:47:20.402Z,2.67
2022-09-10T11:49:54.655Z,1.83
2022-09-10T11:52:25.822Z,2.85
2022-09-10T11:54:57.015Z,3.75
2022-09-10T11:57:35.166Z,1.80
2022-09-10T12:00:22.364Z,2.22
2022-09-10T12:03:21.506Z,2.35
2022-09-10T12:06:06.517Z,2.15
2022-09-10T12:08:51.185Z,2.03
2022-09-10T12:11:28.366Z,1.55
2022-09-10T12:13:57.480Z,2.78
2022-09-10T12:16:35.777Z,1.75
2022-09-10T12:19:08.321Z,1.95
2022-09-10T12:21:41.946Z,3.60
2022-09-10T12:24:27.144Z,1.52
2022-09-10T12:26:59.164Z,2.80
2022-09-10T12:29:34.237Z,1.80
2022-09-10T12:32:37.684Z,1.30
2022-09-10T12:35:46.116Z,1.63
2022-09-10T12:38:56.327Z,1.60
2022-09-10T12:42:01.357Z,2.10
2022-09-10T12:44:47.459Z,1.60
2022-09-10T12:47:42.456Z,1.35
2022-09-10T12:50:40.394Z,1.30
2022-09-10T12:53:54.932Z,1.92
2022-09-10T12:56:42.382Z,2.25
2022-09-10T12:59:51.263Z,1.45
2022-09-10T13:02:25.735Z,1.30
2022-09-10T13:04:57.154Z,1.15
2022-09-10T13:07:32.073Z,1.48
2022-09-10T13:10:04.073Z,1.95
2022-09-10T13:12:35.194Z,1.05
2022-09-10T13:15:06.072Z,1.17
2022-09-10T13:17:39.425Z,1.45
2022-09-10T13:20:16.237Z,1.17
2022-09-10T13:23:04.186Z,1.73
2022-09-10T13:25:40.263Z,1.98
2022-09-10T13:28:46.475Z,1.05
2022-09-10T13:31:24.151Z,0.90
2022-09-10T13:34:21.875Z,0.80
2022-09-10T13:37:02.605Z,0.90
2022-09-10T13:40:00.373Z,0.70
2022-09-10T13:42:51.054Z,1.00
2022-09-10T13:45:24.986Z,1.00
2022-09-10T13:48:01.684Z,1.25
2022-09-10T13:50:37.824Z,1.00
2022-09-10T13:53:10.696Z,2.33
2022-09-10T13:55:39.568Z,0.90
2022-09-10T13:58:15.038Z,0.60
2022-09-10T14:00:53.208Z,0.95
2022-09-10T14:03:25.954Z,1.63
2022-09-10T14:05:58.605Z,0.77
2022-09-10T14:08:30.806Z,0.57
2022-09-10T14:11:04.282Z,0.75
2022-09-10T14:13:37.899Z,0.77
2022-09-10T14:16:10.154Z,1.15
2022-09-10T14:18:44.977Z,0.73
2022-09-10T14:21:19.378Z,0.93
2022-09-10T14:23:49.972Z,3.88
2022-09-10T14:26:24.365Z,1.15
2022-09-10T14:28:55.712Z,2.20
2022-09-10T14:31:31.507Z,0.73
2022-09-10T14:34:27.009Z,0.75
2022-09-10T14:36:55.584Z,0.70
2022-09-10T14:39:25.220Z,0.55
2022-09-10T14:42:10.310Z,0.77
2022-09-10T14:44:42.902Z,1.02
2022-09-10T14:47:15.872Z,0.73
2022-09-10T14:49:47.163Z,2.75
2022-09-10T14:52:15.805Z,1.73
2022-09-10T14:54:44.263Z,2.42
2022-09-10T14:57:15.201Z,1.80
2022-09-10T14:59:46.251Z,1.85
2022-09-10T15:02:17.877Z,2.08
2022-09-10T15:04:47.811Z,1.92
2022-09-10T15:07:16.315Z,2.47
2022-09-10T15:09:44.766Z,1.88
2022-09-10T15:12:19.553Z,2.17
2022-09-10T15:14:48.077Z,3.17
2022-09-10T15:17:18.513Z,2.10
2022-09-10T15:19:48.654Z,3.50
2022-09-10T15:22:24.735Z,2.20
2022-09-10T15:25:11.501Z,3.05
2022-09-10T15:27:40.385Z,1.90
2022-09-10T15:30:10.036Z,1.80
2022-09-10T15:32:38.780Z,1.60
2022-09-10T15:35:09.788Z,1.90
2022-09-10T15:37:38.525Z,1.80
2022-09-10T15:40:09.284Z,2.10
2022-09-10T15:42:37.821Z,1.98
2022-09-10T15:45:07.106Z,2.10
2022-09-10T15:47:36.329Z,2.85
2022-09-10T15:50:05.974Z,1.65
2022-09-10T15:52:36.291Z,1.80
2022-09-10T15:55:07.063Z,2.30
2022-09-10T15:57:35.955Z,1.85
2022-09-10T16:00:06.589Z,1.58
2022-09-10T16:02:35.536Z,2.00
2022-09-10T16:05:04.639Z,2.85
2022-09-10T16:07:33.178Z,3.22
2022-09-10T16:10:02.981Z,3.72
2022-09-10T16:12:31.843Z,2.15
2022-09-10T16:15:01.405Z,2.83
2022-09-10T16:17:31.685Z,2.17
2022-09-10T16:20:00.891Z,2.72
2022-09-10T16:22:30.078Z,2.30
2022-09-10T16:24:58.512Z,2.05
2022-09-10T16:27:28.375Z,2.10
2022-09-10T16:29:56.815Z,2.00
2022-09-10T16:32:25.673Z,2.03
2022-09-10T16:34:54.496Z,1.97
2022-09-10T16:37:23.386Z,2.70
2022-09-10T16:39:51.917Z,3.38
2022-09-10T16:42:20.416Z,4.03
2022-09-10T16:44:50.303Z,5.28
2022-09-10T16:47:18.839Z,4.90
2022-09-10T16:49:47.350Z,5.20
2022-09-10T16:52:15.848Z,7.78
2022-09-10T16:54:46.050Z,9.48
2022-09-10T16:57:14.540Z,8.40
2022-09-10T16:59:42.986Z,7.03
2022-09-10T17:02:12.851Z,7.13
2022-09-10T17:04:41.304Z,7.75
2022-09-10T17:07:09.974Z,7.00
2022-09-10T17:09:38.503Z,7.30
2022-09-10T17:12:08.739Z,6.33
2022-09-10T17:14:39.419Z,6.55
2022-09-10T17:17:07.894Z,7.37
2022-09-10T17:19:37.916Z,6.93
2022-09-10T17:22:06.991Z,6.15
2022-09-10T17:24:35.443Z,6.80
2022-09-10T17:27:03.968Z,9.82
2022-09-10T17:29:32.961Z,6.60
2022-09-10T17:32:01.486Z,12.27
2022-09-10T17:34:29.935Z,7.73
2022-09-10T17:36:59.840Z,7.47
2022-09-10T17:39:29.286Z,8.53
2022-09-10T17:41:58.873Z,7.65
2022-09-10T17:44:27.552Z,9.73
2022-09-10T17:46:56.513Z,10.95
2022-09-10T17:49:25.231Z,12.03
2022-09-10T17:51:53.740Z,11.45
2022-09-10T17:54:24.386Z,10.23
2022-09-10T17:56:52.840Z,10.13
2022-09-10T17:59:21.964Z,9.30
2022-09-10T18:01:50.532Z,10.52
2022-09-10T18:04:21.510Z,8.77
2022-09-10T18:06:52.445Z,10.20
2022-09-10T18:09:21.955Z,9.77
2022-09-10T18:11:51.984Z,11.15
2022-09-10T18:14:21.918Z,13.23
2022-09-10T18:16:51.368Z,12.17
2022-09-10T18:19:20.054Z,12.35
2022-09-10T18:21:51.012Z,13.07
2022-09-10T18:24:22.521Z,15.40
2022-09-10T18:26:54.654Z,13.83
2022-09-10T18:29:25.118Z,13.87
2022-09-10T18:31:55.741Z,14.83
2022-09-10T18:34:27.803Z,14.20
2022-09-10T18:36:58.473Z,13.67
2022-09-10T18:39:28.214Z,12.23
2022-09-10T18:41:59.713Z,13.17
2022-09-10T18:44:33.115Z,13.13
2022-09-10T18:47:01.568Z,12.30
2022-09-10T18:49:30.355Z,16.30
2022-09-10T18:51:58.808Z,17.57
2022-09-10T18:54:29.647Z,17.03
2022-09-10T18:56:59.616Z,15.73
2022-09-10T18:59:28.183Z,15.80
2022-09-10T19:01:56.900Z,16.50
2022-09-10T19:04:28.183Z,18.53
2022-09-10T19:06:58.184Z,24.27
2022-09-10T19:09:27.933Z,16.77
2022-09-10T19:11:58.444Z,16.87
2022-09-10T19:14:29.967Z,18.80
2022-09-10T19:17:00.319Z,17.80
2022-09-10T19:19:31.747Z,18.38
2022-09-10T19:22:03.363Z,19.02
2022-09-10T19:24:53.572Z,17.20
2022-09-10T19:27:21.358Z,19.13
2022-09-10T19:29:51.782Z,15.73
2022-09-10T19:32:21.251Z,20.83
2022-09-10T19:34:50.856Z,19.40
2022-09-10T19:37:19.599Z,17.83
2022-09-10T19:39:48.143Z,19.63
2022-09-10T19:42:17.254Z,17.77
2022-09-10T19:44:45.716Z,19.73
2022-09-10T19:47:15.524Z,15.93
2022-09-10T19:49:44.047Z,20.33
2022-09-10T19:52:12.501Z,18.88
2022-09-10T19:54:41.015Z,19.73
2022-09-10T19:57:09.534Z,18.00
2022-09-10T19:59:38.946Z,17.03
2022-09-10T20:02:08.032Z,18.10
2022-09-10T20:04:37.932Z,18.50
2022-09-10T20:07:06.556Z,15.90
2022-09-10T20:09:39.676Z,16.55
2022-09-10T20:12:08.808Z,18.98
2022-09-10T20:14:38.161Z,16.83
2022-09-10T20:17:06.778Z,17.88
2022-09-10T20:19:35.709Z,16.90
2022-09-10T20:22:05.573Z,19.23
2022-09-10T20:24:34.225Z,18.63
2022-09-10T20:27:03.870Z,14.90
2022-09-10T20:29:33.227Z,16.30
2022-09-10T20:32:01.819Z,17.52
2022-09-10T20:34:31.311Z,17.83
2022-09-10T20:36:59.850Z,13.93
2022-09-10T20:39:31.701Z,16.87
2022-09-10T20:42:00.519Z,15.27
2022-09-10T20:44:30.042Z,17.13
2022-09-10T20:46:58.527Z,17.90
2022-09-10T20:49:27.438Z,14.77
2022-09-10T20:51:56.634Z,19.33
2022-09-10T20:54:25.164Z,15.17
2022-09-10T20:56:55.148Z,17.00
2022-09-10T20:59:27.666Z,16.38
2022-09-10T21:01:56.725Z,21.40
2022-09-10T21:04:26.400Z,16.70
2022-09-10T21:06:55.184Z,17.40
2022-09-10T21:09:23.790Z,21.90
2022-09-10T21:11:52.478Z,18.80
2022-09-10T21:14:22.698Z,22.13
2022-09-10T21:16:51.416Z,16.07
2022-09-10T21:19:19.927Z,19.53
2022-09-10T21:21:49.685Z,21.13
2022-09-10T21:24:22.475Z,24.10
2022-09-10T21:26:53.391Z,18.30
2022-09-10T21:29:23.708Z,18.67
2022-09-10T21:31:54.653Z,24.50
2022-09-10T21:34:23.816Z,28.83
2022-09-10T21:36:52.554Z,21.20
2022-09-10T21:39:21.140Z,22.83
2022-09-10T21:41:51.404Z,22.27
2022-09-10T21:44:22.074Z,24.67
2022-09-10T21:46:53.320Z,21.47
2022-09-10T21:49:22.029Z,20.55
2022-09-10T21:51:51.022Z,20.92
2022-09-10T21:54:22.017Z,20.92
2022-09-10T21:56:51.693Z,18.42
2022-09-10T21:59:21.497Z,19.73
2022-09-10T22:01:51.624Z,18.70
2022-09-10T22:04:23.066Z,19.37
2022-09-10T22:06:53.937Z,19.92
2022-09-10T22:09:22.678Z,18.57
2022-09-10T22:11:54.231Z,17.33
2022-09-10T22:14:24.502Z,18.48
2022-09-10T22:16:55.109Z,18.60
2022-09-10T22:19:25.851Z,18.58
2022-09-10T22:21:56.792Z,16.92
2022-09-10T22:24:26.181Z,18.10
2022-09-10T22:26:54.781Z,16.90
2022-09-10T22:29:23.387Z,17.30
2022-09-10T22:31:52.309Z,18.97
2022-09-10T22:34:22.512Z,16.67
2022-09-10T22:36:51.305Z,19.08
2022-09-10T22:39:21.595Z,16.47
2022-09-10T22:41:51.998Z,19.67
2022-09-10T22:44:20.529Z,19.23
2022-09-10T22:46:49.093Z,18.20
2022-09-10T22:49:18.081Z,18.55
2022-09-10T22:51:47.967Z,22.45
2022-09-10T22:54:17.537Z,20.27
2022-09-10T22:56:46.250Z,18.40
2022-09-10T22:59:16.099Z,19.20
2022-09-10T23:01:47.562Z,16.23
2022-09-10T23:04:16.696Z,16.08
2022-09-10T23:06:45.208Z,18.07
2022-09-10T23:09:17.407Z,16.92
2022-09-10T23:11:46.732Z,17.57
2022-09-10T23:14:19.247Z,17.83
2022-09-10T23:16:49.558Z,18.08
2022-09-10T23:19:20.173Z,19.27
2022-09-10T23:21:51.053Z,18.55
2022-09-10T23:24:24.304Z,19.50
2022-09-10T23:26:53.213Z,20.90
2022-09-10T23:29:23.368Z,22.38
2022-09-10T23:31:54.045Z,19.00
2022-09-10T23:34:23.405Z,20.13
2022-09-10T23:36:53.100Z,20.83
2022-09-10T23:39:24.876Z,21.25
2022-09-10T23:41:55.603Z,20.90
2022-09-10T23:44:24.482Z,22.83
2022-09-10T23:46:53.525Z,18.73
2022-09-10T23:49:22.547Z,19.13
2022-09-10T23:51:51.607Z,20.30
2022-09-10T23:54:20.511Z,21.98
2022-09-10T23:56:50.474Z,20.63
2022-09-10T23:59:19.466Z,20.63
